sensor_id;sensor_type;location;lat;lon;timestamp;temperature;humidity
7296;DHT22;40758;54.038;11.684;2022-08-21T00:00:31;17.70;99.90
7296;DHT22;40758;54.038;11.684;2022-08-21T00:03:02;17.60;99.90
7296;DHT22;40758;54.038;11.684;2022-08-21T00:05:36;17.60;99.90
7296;DHT22;40758;54.038;11.684;2022-08-21T00:08:07;17.60;99.90
7296;DHT22;40758;54.038;11.684;2022-08-21T00:10:36;17.50;99.90
7296;DHT22;40758;54.038;11.684;2022-08-21T00:13:06;17.50;99.90
7296;DHT22;40758;54.038;11.684;2022-08-21T00:15:36;17.50;99.90
7296;DHT22;40758;54.038;11.684;2022-08-21T00:18:07;17.50;99.90
7296;DHT22;40758;54.038;11.684;2022-08-21T00:20:38;17.40;99.90
7296;DHT22;40758;54.038;11.684;2022-08-21T00:23:09;17.40;99.90
7296;DHT22;40758;54.038;11.684;2022-08-21T00:25:39;17.30;99.90
7296;DHT22;40758;54.038;11.684;2022-08-21T00:28:09;17.30;99.90
7296;DHT22;40758;54.038;11.684;2022-08-21T00:30:40;17.30;99.90
7296;DHT22;40758;54.038;11.684;2022-08-21T00:33:09;17.30;99.90
7296;DHT22;40758;54.038;11.684;2022-08-21T00:35:41;17.20;99.90
7296;DHT22;40758;54.038;11.684;2022-08-21T00:38:13;17.20;99.90
7296;DHT22;40758;54.038;11.684;2022-08-21T00:40:45;17.20;99.90
7296;DHT22;40758;54.038;11.684;2022-08-21T00:43:19;17.10;99.90
7296;DHT22;40758;54.038;11.684;2022-08-21T00:45:49;17.10;99.90
7296;DHT22;40758;54.038;11.684;2022-08-21T00:48:20;17.00;99.90
7296;DHT22;40758;54.038;11.684;2022-08-21T00:50:58;17.00;99.90
7296;DHT22;40758;54.038;11.684;2022-08-21T00:53:33;17.00;99.90
7296;DHT22;40758;54.038;11.684;2022-08-21T00:56:05;17.00;99.90
7296;DHT22;40758;54.038;11.684;2022-08-21T00:58:37;16.90;99.90
7296;DHT22;40758;54.038;11.684;2022-08-21T01:01:10;16.90;99.90
7296;DHT22;40758;54.038;11.684;2022-08-21T01:05:27;16.80;99.90
7296;DHT22;40758;54.038;11.684;2022-08-21T01:07:56;16.70;99.90
7296;DHT22;40758;54.038;11.684;2022-08-21T01:10:25;16.50;99.90
7296;DHT22;40758;54.038;11.684;2022-08-21T01:12:56;16.30;99.90
7296;DHT22;40758;54.038;11.684;2022-08-21T01:15:29;16.00;99.90
7296;DHT22;40758;54.038;11.684;2022-08-21T01:18:00;15.80;99.90
7296;DHT22;40758;54.038;11.684;2022-08-21T01:20:31;15.60;99.90
7296;DHT22;40758;54.038;11.684;2022-08-21T01:23:04;15.40;99.90
7296;DHT22;40758;54.038;11.684;2022-08-21T01:25:34;15.30;99.90
7296;DHT22;40758;54.038;11.684;2022-08-21T01:28:09;15.10;99.90
7296;DHT22;40758;54.038;11.684;2022-08-21T01:30:40;15.00;99.90
7296;DHT22;40758;54.038;11.684;2022-08-21T01:33:11;14.90;99.90
7296;DHT22;40758;54.038;11.684;2022-08-21T01:35:40;14.80;99.90
7296;DHT22;40758;54.038;11.684;2022-08-21T01:38:10;14.80;99.90
7296;DHT22;40758;54.038;11.684;2022-08-21T01:40:39;14.80;99.90
7296;DHT22;40758;54.038;11.684;2022-08-21T01:43:07;14.80;99.90
7296;DHT22;40758;54.038;11.684;2022-08-21T01:45:36;14.90;99.90
7296;DHT22;40758;54.038;11.684;2022-08-21T01:48:05;14.80;99.90
7296;DHT22;40758;54.038;11.684;2022-08-21T01:50:34;14.70;99.90
7296;DHT22;40758;54.038;11.684;2022-08-21T01:53:04;14.60;99.90
7296;DHT22;40758;54.038;11.684;2022-08-21T01:55:34;14.50;99.90
7296;DHT22;40758;54.038;11.684;2022-08-21T01:58:03;14.40;99.90
7296;DHT22;40758;54.038;11.684;2022-08-21T02:00:32;14.30;99.90
7296;DHT22;40758;54.038;11.684;2022-08-21T02:03:00;14.30;99.90
7296;DHT22;40758;54.038;11.684;2022-08-21T02:05:30;14.30;99.90
7296;DHT22;40758;54.038;11.684;2022-08-21T02:08:00;14.50;99.90
7296;DHT22;40758;54.038;11.684;2022-08-21T02:10:31;14.60;99.90
7296;DHT22;40758;54.038;11.684;2022-08-21T02:13:01;14.70;99.90
7296;DHT22;40758;54.038;11.684;2022-08-21T02:15:31;14.80;99.90
7296;DHT22;40758;54.038;11.684;2022-08-21T02:18:01;15.00;99.90
7296;DHT22;40758;54.038;11.684;2022-08-21T02:20:36;15.10;99.90
7296;DHT22;40758;54.038;11.684;2022-08-21T02:23:09;15.20;99.90
7296;DHT22;40758;54.038;11.684;2022-08-21T02:25:39;15.20;99.90
7296;DHT22;40758;54.038;11.684;2022-08-21T02:28:11;15.10;99.90
7296;DHT22;40758;54.038;11.684;2022-08-21T02:30:44;14.90;99.90
7296;DHT22;40758;54.038;11.684;2022-08-21T02:33:15;14.70;99.90
7296;DHT22;40758;54.038;11.684;2022-08-21T02:35:45;14.60;99.90
7296;DHT22;40758;54.038;11.684;2022-08-21T02:38:18;14.60;99.90
7296;DHT22;40758;54.038;11.684;2022-08-21T02:40:50;14.60;99.90
7296;DHT22;40758;54.038;11.684;2022-08-21T02:43:25;14.60;99.90
7296;DHT22;40758;54.038;11.684;2022-08-21T02:45:57;14.40;99.90
7296;DHT22;40758;54.038;11.684;2022-08-21T02:48:30;14.30;99.90
7296;DHT22;40758;54.038;11.684;2022-08-21T02:51:02;14.20;99.90
7296;DHT22;40758;54.038;11.684;2022-08-21T02:53:34;14.10;99.90
7296;DHT22;40758;54.038;11.684;2022-08-21T02:56:06;14.00;99.90
7296;DHT22;40758;54.038;11.684;2022-08-21T02:58:40;13.90;99.90
7296;DHT22;40758;54.038;11.684;2022-08-21T03:01:10;13.90;99.90
7296;DHT22;40758;54.038;11.684;2022-08-21T03:05:28;13.80;99.90
7296;DHT22;40758;54.038;11.684;2022-08-21T03:08:00;13.90;99.90
7296;DHT22;40758;54.038;11.684;2022-08-21T03:10:30;14.10;99.90
7296;DHT22;40758;54.038;11.684;2022-08-21T03:13:00;14.20;99.90
7296;DHT22;40758;54.038;11.684;2022-08-21T03:15:31;14.20;99.90
7296;DHT22;40758;54.038;11.684;2022-08-21T03:18:01;14.20;99.90
7296;DHT22;40758;54.038;11.684;2022-08-21T03:20:35;14.00;99.90
7296;DHT22;40758;54.038;11.684;2022-08-21T03:23:05;13.80;99.90
7296;DHT22;40758;54.038;11.684;2022-08-21T03:25:40;13.70;99.90
7296;DHT22;40758;54.038;11.684;2022-08-21T03:28:14;13.80;99.90
7296;DHT22;40758;54.038;11.684;2022-08-21T03:30:50;13.70;99.90
7296;DHT22;40758;54.038;11.684;2022-08-21T03:33:20;13.70;99.90
7296;DHT22;40758;54.038;11.684;2022-08-21T03:35:57;13.80;99.90
7296;DHT22;40758;54.038;11.684;2022-08-21T03:38:33;13.90;99.90
7296;DHT22;40758;54.038;11.684;2022-08-21T03:41:04;13.90;99.90
7296;DHT22;40758;54.038;11.684;2022-08-21T03:43:34;14.00;99.90
7296;DHT22;40758;54.038;11.684;2022-08-21T03:46:05;14.00;99.90
7296;DHT22;40758;54.038;11.684;2022-08-21T03:48:35;13.90;99.90
7296;DHT22;40758;54.038;11.684;2022-08-21T03:51:07;13.90;99.90
7296;DHT22;40758;54.038;11.684;2022-08-21T03:53:36;13.90;99.90
7296;DHT22;40758;54.038;11.684;2022-08-21T03:56:06;13.90;99.90
7296;DHT22;40758;54.038;11.684;2022-08-21T03:58:35;13.90;99.90
7296;DHT22;40758;54.038;11.684;2022-08-21T04:01:05;13.90;99.90
7296;DHT22;40758;54.038;11.684;2022-08-21T04:03:35;14.00;99.90
7296;DHT22;40758;54.038;11.684;2022-08-21T04:06:07;14.00;99.90
7296;DHT22;40758;54.038;11.684;2022-08-21T04:08:36;13.90;99.90
7296;DHT22;40758;54.038;11.684;2022-08-21T04:11:05;13.90;99.90
7296;DHT22;40758;54.038;11.684;2022-08-21T04:13:34;14.00;99.90
7296;DHT22;40758;54.038;11.684;2022-08-21T04:16:10;14.10;99.90
7296;DHT22;40758;54.038;11.684;2022-08-21T04:18:40;14.10;99.90
7296;DHT22;40758;54.038;11.684;2022-08-21T04:21:11;14.20;99.90
7296;DHT22;40758;54.038;11.684;2022-08-21T04:23:41;14.20;99.90
7296;DHT22;40758;54.038;11.684;2022-08-21T04:26:09;14.10;99.90
7296;DHT22;40758;54.038;11.684;2022-08-21T04:28:38;14.00;99.90
7296;DHT22;40758;54.038;11.684;2022-08-21T04:31:10;13.90;99.90
7296;DHT22;40758;54.038;11.684;2022-08-21T04:33:39;13.80;99.90
7296;DHT22;40758;54.038;11.684;2022-08-21T04:36:10;13.80;99.90
7296;DHT22;40758;54.038;11.684;2022-08-21T04:38:39;13.70;99.90
7296;DHT22;40758;54.038;11.684;2022-08-21T04:41:10;13.70;99.90
7296;DHT22;40758;54.038;11.684;2022-08-21T04:43:39;13.70;99.90
7296;DHT22;40758;54.038;11.684;2022-08-21T04:46:08;13.70;99.90
7296;DHT22;40758;54.038;11.684;2022-08-21T04:48:39;13.90;99.90
7296;DHT22;40758;54.038;11.684;2022-08-21T04:51:15;14.00;99.90
7296;DHT22;40758;54.038;11.684;2022-08-21T04:53:49;14.10;99.90
7296;DHT22;40758;54.038;11.684;2022-08-21T04:56:22;14.10;99.90
7296;DHT22;40758;54.038;11.684;2022-08-21T04:58:53;14.20;99.90
7296;DHT22;40758;54.038;11.684;2022-08-21T05:01:27;14.30;99.90
7296;DHT22;40758;54.038;11.684;2022-08-21T05:05:27;14.30;99.90
7296;DHT22;40758;54.038;11.684;2022-08-21T05:07:57;14.40;99.90
7296;DHT22;40758;54.038;11.684;2022-08-21T05:10:28;14.40;99.90
7296;DHT22;40758;54.038;11.684;2022-08-21T05:12:59;14.40;99.90
7296;DHT22;40758;54.038;11.684;2022-08-21T05:15:28;14.50;99.90
7296;DHT22;40758;54.038;11.684;2022-08-21T05:17:57;14.60;99.90
7296;DHT22;40758;54.038;11.684;2022-08-21T05:20:52;14.60;99.90
7296;DHT22;40758;54.038;11.684;2022-08-21T05:23:21;14.70;99.90
7296;DHT22;40758;54.038;11.684;2022-08-21T05:25:50;14.70;99.90
7296;DHT22;40758;54.038;11.684;2022-08-21T05:28:20;14.70;99.90
7296;DHT22;40758;54.038;11.684;2022-08-21T05:30:49;14.80;99.90
7296;DHT22;40758;54.038;11.684;2022-08-21T05:33:18;14.90;99.90
7296;DHT22;40758;54.038;11.684;2022-08-21T05:35:49;15.00;99.90
7296;DHT22;40758;54.038;11.684;2022-08-21T05:38:19;15.10;99.90
7296;DHT22;40758;54.038;11.684;2022-08-21T05:40:48;15.30;99.90
7296;DHT22;40758;54.038;11.684;2022-08-21T05:43:16;15.60;99.90
7296;DHT22;40758;54.038;11.684;2022-08-21T05:45:45;15.70;99.90
7296;DHT22;40758;54.038;11.684;2022-08-21T05:48:17;15.70;99.90
7296;DHT22;40758;54.038;11.684;2022-08-21T05:50:50;15.90;99.90
7296;DHT22;40758;54.038;11.684;2022-08-21T05:53:22;16.10;99.90
7296;DHT22;40758;54.038;11.684;2022-08-21T05:55:51;16.50;99.90
7296;DHT22;40758;54.038;11.684;2022-08-21T05:58:21;17.10;99.90
7296;DHT22;40758;54.038;11.684;2022-08-21T06:00:51;17.90;99.90
7296;DHT22;40758;54.038;11.684;2022-08-21T06:03:23;18.90;99.90
7296;DHT22;40758;54.038;11.684;2022-08-21T06:05:55;20.00;99.90
7296;DHT22;40758;54.038;11.684;2022-08-21T06:08:25;20.70;99.90
7296;DHT22;40758;54.038;11.684;2022-08-21T06:10:56;20.80;99.90
7296;DHT22;40758;54.038;11.684;2022-08-21T06:13:26;21.60;99.90
7296;DHT22;40758;54.038;11.684;2022-08-21T06:16:08;22.50;99.90
7296;DHT22;40758;54.038;11.684;2022-08-21T06:18:42;23.40;99.90
7296;DHT22;40758;54.038;11.684;2022-08-21T06:21:14;24.30;99.90
7296;DHT22;40758;54.038;11.684;2022-08-21T06:23:43;25.30;99.90
7296;DHT22;40758;54.038;11.684;2022-08-21T06:26:13;26.10;99.90
7296;DHT22;40758;54.038;11.684;2022-08-21T06:28:43;26.80;99.90
7296;DHT22;40758;54.038;11.684;2022-08-21T06:31:14;27.30;99.90
7296;DHT22;40758;54.038;11.684;2022-08-21T06:33:44;27.20;99.90
7296;DHT22;40758;54.038;11.684;2022-08-21T06:36:15;26.80;99.90
7296;DHT22;40758;54.038;11.684;2022-08-21T06:38:44;25.70;99.90
7296;DHT22;40758;54.038;11.684;2022-08-21T06:41:18;25.20;99.90
7296;DHT22;40758;54.038;11.684;2022-08-21T06:43:52;25.50;99.90
7296;DHT22;40758;54.038;11.684;2022-08-21T06:46:22;25.60;99.90
7296;DHT22;40758;54.038;11.684;2022-08-21T06:48:52;25.90;99.90
7296;DHT22;40758;54.038;11.684;2022-08-21T06:51:22;26.60;99.90
7296;DHT22;40758;54.038;11.684;2022-08-21T06:53:53;27.10;99.90
7296;DHT22;40758;54.038;11.684;2022-08-21T06:56:25;27.20;99.90
7296;DHT22;40758;54.038;11.684;2022-08-21T06:58:53;26.90;99.90
7296;DHT22;40758;54.038;11.684;2022-08-21T07:01:24;27.30;99.90
7296;DHT22;40758;54.038;11.684;2022-08-21T07:05:27;28.20;99.90
7296;DHT22;40758;54.038;11.684;2022-08-21T07:07:57;28.60;99.90
7296;DHT22;40758;54.038;11.684;2022-08-21T07:10:27;29.10;99.90
7296;DHT22;40758;54.038;11.684;2022-08-21T07:12:56;29.00;99.90
7296;DHT22;40758;54.038;11.684;2022-08-21T07:15:28;29.00;99.90
7296;DHT22;40758;54.038;11.684;2022-08-21T07:17:57;29.10;99.90
7296;DHT22;40758;54.038;11.684;2022-08-21T07:20:29;30.10;99.90
7296;DHT22;40758;54.038;11.684;2022-08-21T07:23:05;30.60;99.90
7296;DHT22;40758;54.038;11.684;2022-08-21T07:25:38;30.50;99.90
7296;DHT22;40758;54.038;11.684;2022-08-21T07:28:07;30.90;98.50
7296;DHT22;40758;54.038;11.684;2022-08-21T07:30:35;31.30;99.90
7296;DHT22;40758;54.038;11.684;2022-08-21T07:33:04;31.30;97.70
7296;DHT22;40758;54.038;11.684;2022-08-21T07:35:35;31.80;93.00
7296;DHT22;40758;54.038;11.684;2022-08-21T07:38:04;30.70;98.20
7296;DHT22;40758;54.038;11.684;2022-08-21T07:40:33;30.50;98.00
7296;DHT22;40758;54.038;11.684;2022-08-21T07:43:02;30.90;98.70
7296;DHT22;40758;54.038;11.684;2022-08-21T07:45:30;31.70;99.80
7296;DHT22;40758;54.038;11.684;2022-08-21T07:47:59;31.90;90.40
7296;DHT22;40758;54.038;11.684;2022-08-21T07:50:28;31.50;91.40
7296;DHT22;40758;54.038;11.684;2022-08-21T07:52:58;30.50;89.40
7296;DHT22;40758;54.038;11.684;2022-08-21T07:55:27;30.10;96.40
7296;DHT22;40758;54.038;11.684;2022-08-21T07:57:56;30.20;96.70
7296;DHT22;40758;54.038;11.684;2022-08-21T08:00:27;29.90;84.80
7296;DHT22;40758;54.038;11.684;2022-08-21T08:02:57;29.40;87.80
7296;DHT22;40758;54.038;11.684;2022-08-21T08:05:31;29.40;95.00
7296;DHT22;40758;54.038;11.684;2022-08-21T08:08:01;29.60;86.30
7296;DHT22;40758;54.038;11.684;2022-08-21T08:10:30;29.80;83.00
7296;DHT22;40758;54.038;11.684;2022-08-21T08:12:59;29.20;86.30
7296;DHT22;40758;54.038;11.684;2022-08-21T08:15:28;28.80;94.10
7296;DHT22;40758;54.038;11.684;2022-08-21T08:18:03;29.40;91.20
7296;DHT22;40758;54.038;11.684;2022-08-21T08:20:32;30.50;75.60
7296;DHT22;40758;54.038;11.684;2022-08-21T08:23:02;31.00;83.20
7296;DHT22;40758;54.038;11.684;2022-08-21T08:25:31;31.40;69.10
7296;DHT22;40758;54.038;11.684;2022-08-21T08:28:03;31.60;71.40
7296;DHT22;40758;54.038;11.684;2022-08-21T08:30:43;31.30;62.10
7296;DHT22;40758;54.038;11.684;2022-08-21T08:33:13;30.60;58.00
7296;DHT22;40758;54.038;11.684;2022-08-21T08:35:45;30.60;62.60
7296;DHT22;40758;54.038;11.684;2022-08-21T08:38:18;30.90;61.90
7296;DHT22;40758;54.038;11.684;2022-08-21T08:40:55;31.20;57.60
7296;DHT22;40758;54.038;11.684;2022-08-21T08:43:30;31.00;58.90
7296;DHT22;40758;54.038;11.684;2022-08-21T08:46:04;30.40;58.20
7296;DHT22;40758;54.038;11.684;2022-08-21T08:48:46;30.80;58.90
7296;DHT22;40758;54.038;11.684;2022-08-21T08:51:24;31.20;57.50
7296;DHT22;40758;54.038;11.684;2022-08-21T08:54:03;31.40;53.00
7296;DHT22;40758;54.038;11.684;2022-08-21T08:56:35;30.10;54.00
7296;DHT22;40758;54.038;11.684;2022-08-21T08:59:09;29.50;57.60
7296;DHT22;40758;54.038;11.684;2022-08-21T09:01:43;29.60;58.80
7296;DHT22;40758;54.038;11.684;2022-08-21T09:05:29;29.80;56.20
7296;DHT22;40758;54.038;11.684;2022-08-21T09:08:20;30.10;55.80
7296;DHT22;40758;54.038;11.684;2022-08-21T09:11:02;30.30;56.40
7296;DHT22;40758;54.038;11.684;2022-08-21T09:13:41;29.90;57.50
7296;DHT22;40758;54.038;11.684;2022-08-21T09:16:24;30.40;56.00
7296;DHT22;40758;54.038;11.684;2022-08-21T09:19:08;31.40;57.30
7296;DHT22;40758;54.038;11.684;2022-08-21T09:21:59;31.90;52.30
7296;DHT22;40758;54.038;11.684;2022-08-21T09:24:42;31.80;52.60
7296;DHT22;40758;54.038;11.684;2022-08-21T09:27:22;32.10;53.10
7296;DHT22;40758;54.038;11.684;2022-08-21T09:29:54;31.60;49.40
7296;DHT22;40758;54.038;11.684;2022-08-21T09:32:27;31.50;51.90
7296;DHT22;40758;54.038;11.684;2022-08-21T09:35:06;31.70;52.50
7296;DHT22;40758;54.038;11.684;2022-08-21T09:37:49;31.60;51.80
7296;DHT22;40758;54.038;11.684;2022-08-21T09:40:31;32.20;52.00
7296;DHT22;40758;54.038;11.684;2022-08-21T09:43:06;32.10;48.20
7296;DHT22;40758;54.038;11.684;2022-08-21T09:45:45;31.50;49.40
7296;DHT22;40758;54.038;11.684;2022-08-21T09:48:19;31.60;49.20
7296;DHT22;40758;54.038;11.684;2022-08-21T09:50:53;31.80;49.40
7296;DHT22;40758;54.038;11.684;2022-08-21T09:53:39;32.10;49.70
7296;DHT22;40758;54.038;11.684;2022-08-21T09:56:25;32.20;48.70
7296;DHT22;40758;54.038;11.684;2022-08-21T09:59:16;32.00;47.70
7296;DHT22;40758;54.038;11.684;2022-08-21T10:01:49;32.50;48.30
7296;DHT22;40758;54.038;11.684;2022-08-21T10:04:23;32.20;46.00
7296;DHT22;40758;54.038;11.684;2022-08-21T10:07:07;32.30;48.70
7296;DHT22;40758;54.038;11.684;2022-08-21T10:09:38;32.00;46.10
7296;DHT22;40758;54.038;11.684;2022-08-21T10:12:11;31.80;48.40
7296;DHT22;40758;54.038;11.684;2022-08-21T10:14:53;32.20;48.40
7296;DHT22;40758;54.038;11.684;2022-08-21T10:17:41;31.80;46.80
7296;DHT22;40758;54.038;11.684;2022-08-21T10:20:20;30.70;47.90
7296;DHT22;40758;54.038;11.684;2022-08-21T10:23:08;30.50;49.70
7296;DHT22;40758;54.038;11.684;2022-08-21T10:25:56;31.10;51.30
7296;DHT22;40758;54.038;11.684;2022-08-21T10:28:45;31.60;50.10
7296;DHT22;40758;54.038;11.684;2022-08-21T10:31:32;32.10;50.20
7296;DHT22;40758;54.038;11.684;2022-08-21T10:34:23;31.90;44.20
7296;DHT22;40758;54.038;11.684;2022-08-21T10:37:10;31.30;49.70
7296;DHT22;40758;54.038;11.684;2022-08-21T10:39:56;32.10;47.20
7296;DHT22;40758;54.038;11.684;2022-08-21T10:42:47;31.80;49.40
7296;DHT22;40758;54.038;11.684;2022-08-21T10:45:45;31.10;46.10
7296;DHT22;40758;54.038;11.684;2022-08-21T10:48:28;30.10;49.90
7296;DHT22;40758;54.038;11.684;2022-08-21T10:51:07;29.80;49.30
7296;DHT22;40758;54.038;11.684;2022-08-21T10:53:49;30.20;51.60
7296;DHT22;40758;54.038;11.684;2022-08-21T10:56:26;30.80;48.70
7296;DHT22;40758;54.038;11.684;2022-08-21T10:59:09;31.40;48.50
7296;DHT22;40758;54.038;11.684;2022-08-21T11:05:31;31.70;46.20
7296;DHT22;40758;54.038;11.684;2022-08-21T11:08:06;31.10;47.90
7296;DHT22;40758;54.038;11.684;2022-08-21T11:10:45;30.70;46.80
7296;DHT22;40758;54.038;11.684;2022-08-21T11:13:30;30.60;49.20
7296;DHT22;40758;54.038;11.684;2022-08-21T11:16:09;29.80;51.30
7296;DHT22;40758;54.038;11.684;2022-08-21T11:18:47;29.80;51.60
7296;DHT22;40758;54.038;11.684;2022-08-21T11:21:34;30.30;50.20
7296;DHT22;40758;54.038;11.684;2022-08-21T11:24:24;30.10;50.00
7296;DHT22;40758;54.038;11.684;2022-08-21T11:27:03;29.30;50.30
7296;DHT22;40758;54.038;11.684;2022-08-21T11:29:42;28.10;52.60
7296;DHT22;40758;54.038;11.684;2022-08-21T11:32:42;27.80;51.60
7296;DHT22;40758;54.038;11.684;2022-08-21T11:35:30;28.00;55.90
7296;DHT22;40758;54.038;11.684;2022-08-21T11:38:14;27.50;55.50
7296;DHT22;40758;54.038;11.684;2022-08-21T11:41:03;27.40;54.80
7296;DHT22;40758;54.038;11.684;2022-08-21T11:43:43;27.00;57.80
7296;DHT22;40758;54.038;11.684;2022-08-21T11:46:20;26.60;63.40
7296;DHT22;40758;54.038;11.684;2022-08-21T11:49:31;26.50;65.20
7296;DHT22;40758;54.038;11.684;2022-08-21T11:52:15;26.30;61.90
7296;DHT22;40758;54.038;11.684;2022-08-21T11:54:54;26.80;76.10
7296;DHT22;40758;54.038;11.684;2022-08-21T11:57:31;27.10;60.30
7296;DHT22;40758;54.038;11.684;2022-08-21T12:00:08;27.50;66.80
7296;DHT22;40758;54.038;11.684;2022-08-21T12:02:45;28.40;63.60
7296;DHT22;40758;54.038;11.684;2022-08-21T12:05:30;29.10;52.70
7296;DHT22;40758;54.038;11.684;2022-08-21T12:08:05;28.50;53.00
7296;DHT22;40758;54.038;11.684;2022-08-21T12:10:42;27.60;52.90
7296;DHT22;40758;54.038;11.684;2022-08-21T12:13:24;26.60;53.30
7296;DHT22;40758;54.038;11.684;2022-08-21T12:16:10;26.00;65.70
7296;DHT22;40758;54.038;11.684;2022-08-21T12:18:42;26.00;69.80
7296;DHT22;40758;54.038;11.684;2022-08-21T12:21:21;26.00;70.20
7296;DHT22;40758;54.038;11.684;2022-08-21T12:24:03;26.10;61.70
7296;DHT22;40758;54.038;11.684;2022-08-21T12:26:51;26.00;62.90
7296;DHT22;40758;54.038;11.684;2022-08-21T12:29:23;26.20;64.50
7296;DHT22;40758;54.038;11.684;2022-08-21T12:32:01;26.80;61.90
7296;DHT22;40758;54.038;11.684;2022-08-21T12:34:36;27.60;58.70
7296;DHT22;40758;54.038;11.684;2022-08-21T12:37:24;28.00;57.00
7296;DHT22;40758;54.038;11.684;2022-08-21T12:40:01;28.20;54.10
7296;DHT22;40758;54.038;11.684;2022-08-21T12:42:41;27.50;54.90
7296;DHT22;40758;54.038;11.684;2022-08-21T12:45:28;26.90;57.30
7296;DHT22;40758;54.038;11.684;2022-08-21T12:48:04;27.10;62.90
7296;DHT22;40758;54.038;11.684;2022-08-21T12:50:42;27.80;59.00
7296;DHT22;40758;54.038;11.684;2022-08-21T12:53:23;28.30;57.50
7296;DHT22;40758;54.038;11.684;2022-08-21T12:55:56;28.40;56.00
7296;DHT22;40758;54.038;11.684;2022-08-21T12:58:30;29.20;56.10
7296;DHT22;40758;54.038;11.684;2022-08-21T13:01:02;29.70;55.80
7296;DHT22;40758;54.038;11.684;2022-08-21T13:05:33;29.60;48.40
7296;DHT22;40758;54.038;11.684;2022-08-21T13:08:04;28.30;53.20
7296;DHT22;40758;54.038;11.684;2022-08-21T13:10:37;27.80;62.90
7296;DHT22;40758;54.038;11.684;2022-08-21T13:13:12;28.10;57.50
7296;DHT22;40758;54.038;11.684;2022-08-21T13:15:57;28.30;57.30
7296;DHT22;40758;54.038;11.684;2022-08-21T13:18:32;28.90;51.70
7296;DHT22;40758;54.038;11.684;2022-08-21T13:21:06;29.50;56.40
7296;DHT22;40758;54.038;11.684;2022-08-21T13:23:39;29.50;52.90
7296;DHT22;40758;54.038;11.684;2022-08-21T13:26:13;29.20;53.30
7296;DHT22;40758;54.038;11.684;2022-08-21T13:28:45;29.20;50.60
7296;DHT22;40758;54.038;11.684;2022-08-21T13:31:18;28.70;54.50
7296;DHT22;40758;54.038;11.684;2022-08-21T13:33:53;27.90;55.00
7296;DHT22;40758;54.038;11.684;2022-08-21T13:36:28;27.00;59.50
7296;DHT22;40758;54.038;11.684;2022-08-21T13:38:59;26.30;64.10
7296;DHT22;40758;54.038;11.684;2022-08-21T13:41:33;26.10;75.80
7296;DHT22;40758;54.038;11.684;2022-08-21T13:44:05;27.00;62.20
7296;DHT22;40758;54.038;11.684;2022-08-21T13:46:48;28.20;55.70
7296;DHT22;40758;54.038;11.684;2022-08-21T13:49:20;28.80;54.00
7296;DHT22;40758;54.038;11.684;2022-08-21T13:51:56;29.30;52.00
7296;DHT22;40758;54.038;11.684;2022-08-21T13:54:27;30.10;51.80
7296;DHT22;40758;54.038;11.684;2022-08-21T13:57:01;30.60;47.60
7296;DHT22;40758;54.038;11.684;2022-08-21T13:59:33;31.10;49.70
7296;DHT22;40758;54.038;11.684;2022-08-21T14:02:12;31.60;45.10
7296;DHT22;40758;54.038;11.684;2022-08-21T14:04:54;31.40;46.00
7296;DHT22;40758;54.038;11.684;2022-08-21T14:07:34;31.30;48.00
7296;DHT22;40758;54.038;11.684;2022-08-21T14:10:14;31.50;45.90
7296;DHT22;40758;54.038;11.684;2022-08-21T14:12:50;32.00;45.60
7296;DHT22;40758;54.038;11.684;2022-08-21T14:15:25;31.30;45.00
7296;DHT22;40758;54.038;11.684;2022-08-21T14:18:07;31.00;43.90
7296;DHT22;40758;54.038;11.684;2022-08-21T14:20:45;30.40;43.40
7296;DHT22;40758;54.038;11.684;2022-08-21T14:23:25;30.30;47.90
7296;DHT22;40758;54.038;11.684;2022-08-21T14:26:03;30.10;48.80
7296;DHT22;40758;54.038;11.684;2022-08-21T14:28:39;29.70;47.00
7296;DHT22;40758;54.038;11.684;2022-08-21T14:31:16;30.00;51.10
7296;DHT22;40758;54.038;11.684;2022-08-21T14:33:49;30.10;49.40
7296;DHT22;40758;54.038;11.684;2022-08-21T14:36:19;30.60;47.50
7296;DHT22;40758;54.038;11.684;2022-08-21T14:38:51;31.40;45.90
7296;DHT22;40758;54.038;11.684;2022-08-21T14:41:25;31.80;45.50
7296;DHT22;40758;54.038;11.684;2022-08-21T14:43:57;32.10;43.40
7296;DHT22;40758;54.038;11.684;2022-08-21T14:46:36;31.50;45.60
7296;DHT22;40758;54.038;11.684;2022-08-21T14:49:24;30.80;47.30
7296;DHT22;40758;54.038;11.684;2022-08-21T14:51:57;30.60;46.30
7296;DHT22;40758;54.038;11.684;2022-08-21T14:54:30;30.20;50.00
7296;DHT22;40758;54.038;11.684;2022-08-21T14:57:02;30.20;51.00
7296;DHT22;40758;54.038;11.684;2022-08-21T14:59:34;30.60;51.00
7296;DHT22;40758;54.038;11.684;2022-08-21T15:05:26;30.80;45.90
7296;DHT22;40758;54.038;11.684;2022-08-21T15:08:00;30.10;49.40
7296;DHT22;40758;54.038;11.684;2022-08-21T15:10:30;29.50;49.60
7296;DHT22;40758;54.038;11.684;2022-08-21T15:13:18;29.80;49.70
7296;DHT22;40758;54.038;11.684;2022-08-21T15:15:49;30.20;50.40
7296;DHT22;40758;54.038;11.684;2022-08-21T15:18:19;30.30;49.00
7296;DHT22;40758;54.038;11.684;2022-08-21T15:20:50;30.70;48.60
7296;DHT22;40758;54.038;11.684;2022-08-21T15:23:19;31.00;46.70
7296;DHT22;40758;54.038;11.684;2022-08-21T15:25:49;31.50;44.60
7296;DHT22;40758;54.038;11.684;2022-08-21T15:28:20;32.30;47.30
7296;DHT22;40758;54.038;11.684;2022-08-21T15:30:50;32.90;43.80
7296;DHT22;40758;54.038;11.684;2022-08-21T15:33:19;33.10;43.20
7296;DHT22;40758;54.038;11.684;2022-08-21T15:35:49;32.90;43.50
7296;DHT22;40758;54.038;11.684;2022-08-21T15:38:18;32.90;45.10
7296;DHT22;40758;54.038;11.684;2022-08-21T15:40:47;32.90;43.10
7296;DHT22;40758;54.038;11.684;2022-08-21T15:43:23;32.90;42.50
7296;DHT22;40758;54.038;11.684;2022-08-21T15:45:57;32.60;42.40
7296;DHT22;40758;54.038;11.684;2022-08-21T15:48:27;31.80;43.10
7296;DHT22;40758;54.038;11.684;2022-08-21T15:50:57;31.40;45.00
7296;DHT22;40758;54.038;11.684;2022-08-21T15:53:26;30.90;44.70
7296;DHT22;40758;54.038;11.684;2022-08-21T15:55:55;30.60;45.40
7296;DHT22;40758;54.038;11.684;2022-08-21T15:58:23;29.80;47.00
7296;DHT22;40758;54.038;11.684;2022-08-21T16:00:52;28.80;46.70
7296;DHT22;40758;54.038;11.684;2022-08-21T16:03:21;28.40;48.80
7296;DHT22;40758;54.038;11.684;2022-08-21T16:05:50;28.20;48.80
7296;DHT22;40758;54.038;11.684;2022-08-21T16:08:21;28.30;48.80
7296;DHT22;40758;54.038;11.684;2022-08-21T16:10:51;28.40;48.20
7296;DHT22;40758;54.038;11.684;2022-08-21T16:13:24;28.20;49.70
7296;DHT22;40758;54.038;11.684;2022-08-21T16:15:55;28.30;50.00
7296;DHT22;40758;54.038;11.684;2022-08-21T16:18:24;28.50;51.20
7296;DHT22;40758;54.038;11.684;2022-08-21T16:20:53;28.70;49.10
7296;DHT22;40758;54.038;11.684;2022-08-21T16:23:23;29.00;50.30
7296;DHT22;40758;54.038;11.684;2022-08-21T16:25:52;29.60;47.20
7296;DHT22;40758;54.038;11.684;2022-08-21T16:28:21;30.00;46.50